Time;durP1;ratioP1;P1;durP2;ratioP2;P2;SDS_P1;SDS_P2;PMS_P1;PMS_P2;Temp;Humidity;BMP_temperature;BMP_pressure;BME280_temperature;BME280_humidity;BME280_pressure;Samples;Min_cycle;Max_cycle;Signal;HPM_P1;HPM_P2
2022/09/18 00:00:09;;;;;;;16.70;5.53;;;;;;;;;;5053753;28;20116;-63
2022/09/18 00:02:35;;;;;;;16.02;5.97;;;;;;;;;;5053664;28;20028;-63
2022/09/18 00:05:01;;;;;;;15.57;5.80;;;;;;;;;;5053355;28;20040;-62
2022/09/18 00:07:27;;;;;;;17.58;5.38;;;;;;;;;;5053371;28;20401;-64
2022/09/18 00:09:53;;;;;;;15.30;6.00;;;;;;;;;;5052177;28;20071;-63
2022/09/18 00:12:19;;;;;;;15.63;6.00;;;;;;;;;;5052055;28;20059;-64
2022/09/18 00:14:45;;;;;;;17.42;6.30;;;;;;;;;;5053182;28;20025;-62
2022/09/18 00:17:11;;;;;;;19.10;5.80;;;;;;;;;;5053229;28;20051;-62
2022/09/18 00:19:37;;;;;;;14.95;5.60;;;;;;;;;;5053115;28;20416;-63
2022/09/18 00:22:03;;;;;;;16.55;6.10;;;;;;;;;;5053070;28;20092;-61
2022/09/18 00:24:30;;;;;;;18.70;6.45;;;;;;;;;;5052944;28;20397;-61
2022/09/18 00:26:56;;;;;;;19.05;6.47;;;;;;;;;;5053166;28;20097;-61
2022/09/18 00:29:22;;;;;;;17.02;6.43;;;;;;;;;;5052670;28;20025;-62
2022/09/18 00:31:48;;;;;;;19.20;6.47;;;;;;;;;;5053118;28;20104;-60
2022/09/18 00:34:14;;;;;;;17.95;6.57;;;;;;;;;;5052664;28;20051;-60
2022/09/18 00:36:41;;;;;;;18.05;6.32;;;;;;;;;;5053276;28;20058;-63
2022/09/18 00:39:07;;;;;;;16.88;6.05;;;;;;;;;;5052748;28;20488;-63
2022/09/18 00:41:38;;;;;;;16.95;7.32;;;;;;;;;;5052148;28;20029;-61
2022/09/18 00:44:23;;;;;;;14.85;5.97;;;;;;;;;;5052729;28;20458;-60
2022/09/18 00:46:49;;;;;;;20.50;6.65;;;;;;;;;;5052869;28;20100;-61
2022/09/18 00:49:17;;;;;;;15.43;5.93;;;;;;;;;;5052509;28;20053;-55
2022/09/18 00:51:44;;;;;;;19.05;6.18;;;;;;;;;;5052635;28;20161;-63
2022/09/18 00:54:10;;;;;;;24.52;8.15;;;;;;;;;;5052474;28;20048;-63
2022/09/18 00:56:37;;;;;;;18.52;6.38;;;;;;;;;;5052565;28;20028;-61
2022/09/18 00:59:03;;;;;;;15.55;6.32;;;;;;;;;;5052295;28;20519;-63
2022/09/18 01:01:29;;;;;;;15.52;6.00;;;;;;;;;;5052533;28;20448;-61
2022/09/18 01:03:55;;;;;;;19.33;6.00;;;;;;;;;;5052372;28;20033;-61
2022/09/18 01:06:27;;;;;;;17.45;5.82;;;;;;;;;;5052323;28;20034;-63
2022/09/18 01:09:12;;;;;;;17.92;6.32;;;;;;;;;;5052140;28;20024;-61
2022/09/18 01:11:54;;;;;;;18.33;5.97;;;;;;;;;;5052406;28;20029;-61
2022/09/18 01:14:23;;;;;;;18.30;6.55;;;;;;;;;;5052134;28;20044;-63
2022/09/18 01:16:49;;;;;;;16.38;6.47;;;;;;;;;;5050984;28;20493;-59
2022/09/18 01:19:30;;;;;;;17.35;6.18;;;;;;;;;;5052890;28;20104;-61
2022/09/18 01:21:56;;;;;;;17.60;6.13;;;;;;;;;;5052750;28;20036;-63
2022/09/18 01:24:22;;;;;;;18.27;6.78;;;;;;;;;;5050872;28;20037;-64
2022/09/18 01:26:56;;;;;;;15.68;6.47;;;;;;;;;;5052104;28;20064;-63
2022/09/18 01:29:25;;;;;;;18.33;7.65;;;;;;;;;;5051890;28;20056;-63
2022/09/18 01:32:06;;;;;;;18.27;6.20;;;;;;;;;;5052149;28;20041;-61
2022/09/18 01:34:38;;;;;;;18.35;6.20;;;;;;;;;;5050544;28;20072;-63
2022/09/18 01:37:23;;;;;;;15.25;6.22;;;;;;;;;;5051905;28;20025;-61
2022/09/18 01:39:55;;;;;;;19.40;7.20;;;;;;;;;;5052067;28;20494;-61
2022/09/18 01:42:23;;;;;;;17.77;6.72;;;;;;;;;;5050733;28;20031;-63
2022/09/18 01:44:50;;;;;;;16.33;6.43;;;;;;;;;;5050450;28;20028;-63
2022/09/18 01:47:17;;;;;;;21.05;7.57;;;;;;;;;;5051597;28;20032;-63
2022/09/18 01:49:45;;;;;;;16.17;7.07;;;;;;;;;;5051723;28;20029;-61
2022/09/18 01:52:16;;;;;;;15.52;6.72;;;;;;;;;;5051735;28;20446;-61
2022/09/18 01:54:44;;;;;;;18.70;6.60;;;;;;;;;;5051647;28;20029;-64
2022/09/18 01:57:13;;;;;;;15.70;6.53;;;;;;;;;;5051256;28;20026;-57
2022/09/18 01:59:44;;;;;;;18.40;6.00;;;;;;;;;;5051573;28;20033;-61
2022/09/18 02:02:13;;;;;;;17.20;5.82;;;;;;;;;;5051903;28;20493;-61
2022/09/18 02:04:40;;;;;;;16.20;5.80;;;;;;;;;;5051609;28;20535;-63
2022/09/18 02:07:06;;;;;;;15.70;5.70;;;;;;;;;;5050183;28;20021;-63
2022/09/18 02:09:32;;;;;;;18.55;6.20;;;;;;;;;;5050382;28;20440;-63
2022/09/18 02:12:00;;;;;;;17.65;5.78;;;;;;;;;;5051536;28;20031;-64
2022/09/18 02:14:35;;;;;;;17.23;6.07;;;;;;;;;;5051377;28;20025;-63
2022/09/18 02:17:03;;;;;;;16.92;6.03;;;;;;;;;;5051657;28;20059;-64
2022/09/18 02:19:37;;;;;;;15.27;6.18;;;;;;;;;;5050198;28;20067;-63
2022/09/18 02:22:06;;;;;;;16.75;6.10;;;;;;;;;;5051307;28;20479;-62
2022/09/18 02:24:33;;;;;;;16.75;5.75;;;;;;;;;;5051298;28;20059;-61
2022/09/18 02:26:59;;;;;;;20.30;6.35;;;;;;;;;;5050229;28;20481;-62
2022/09/18 02:29:26;;;;;;;14.05;5.75;;;;;;;;;;5051090;28;20029;-63
2022/09/18 02:31:52;;;;;;;17.23;6.13;;;;;;;;;;5051389;28;20032;-60
2022/09/18 02:34:20;;;;;;;20.30;6.10;;;;;;;;;;5050781;28;20029;-63
2022/09/18 02:36:55;;;;;;;18.23;6.15;;;;;;;;;;5050921;28;20055;-61
2022/09/18 02:39:37;;;;;;;19.63;6.13;;;;;;;;;;5049809;28;20025;-63
2022/09/18 02:42:23;;;;;;;18.13;6.22;;;;;;;;;;5051415;28;20028;-63
2022/09/18 02:45:01;;;;;;;19.60;6.30;;;;;;;;;;5051374;28;20079;-58
2022/09/18 02:47:43;;;;;;;16.70;5.95;;;;;;;;;;5051124;28;20215;-64
2022/09/18 02:50:19;;;;;;;15.27;5.88;;;;;;;;;;5051288;28;20477;-61
2022/09/18 02:52:54;;;;;;;15.82;5.93;;;;;;;;;;5051152;28;20029;-61
2022/09/18 02:55:25;;;;;;;16.92;6.28;;;;;;;;;;5051104;28;20025;-63
2022/09/18 02:58:02;;;;;;;18.90;6.38;;;;;;;;;;5050970;28;20021;-61
2022/09/18 03:00:29;;;;;;;15.65;6.18;;;;;;;;;;5051172;28;20190;-62
2022/09/18 03:02:58;;;;;;;16.70;6.43;;;;;;;;;;5051285;28;20029;-61
2022/09/18 03:05:25;;;;;;;17.30;6.10;;;;;;;;;;5052225;28;20021;-63
2022/09/18 03:07:51;;;;;;;15.63;6.13;;;;;;;;;;5053114;28;20025;-61
2022/09/18 03:10:17;;;;;;;13.65;5.40;;;;;;;;;;5054651;28;20052;-63
2022/09/18 03:12:43;;;;;;;15.85;6.22;;;;;;;;;;5053130;28;20474;-63
2022/09/18 03:15:10;;;;;;;22.67;6.47;;;;;;;;;;5054480;28;20021;-62
2022/09/18 03:17:36;;;;;;;14.30;5.82;;;;;;;;;;5054138;28;20021;-62
2022/09/18 03:20:03;;;;;;;16.90;5.70;;;;;;;;;;5054387;28;20052;-62
2022/09/18 03:22:29;;;;;;;16.45;6.85;;;;;;;;;;5054450;28;20025;-63
2022/09/18 03:24:55;;;;;;;19.33;5.60;;;;;;;;;;5053102;28;20029;-61
2022/09/18 03:27:21;;;;;;;16.83;6.28;;;;;;;;;;5054129;28;20029;-61
2022/09/18 03:29:47;;;;;;;16.38;6.28;;;;;;;;;;5054290;28;20025;-61
2022/09/18 03:32:13;;;;;;;18.52;6.38;;;;;;;;;;5052903;28;20029;-63
2022/09/18 03:34:39;;;;;;;17.75;5.85;;;;;;;;;;5054023;28;20371;-59
2022/09/18 03:37:05;;;;;;;16.85;6.50;;;;;;;;;;5054404;28;20025;-60
2022/09/18 03:39:31;;;;;;;18.33;6.40;;;;;;;;;;5054085;28;20017;-59
2022/09/18 03:41:57;;;;;;;20.25;6.85;;;;;;;;;;5054402;28;20043;-60
2022/09/18 03:44:23;;;;;;;18.20;6.53;;;;;;;;;;5054466;28;20052;-61
2022/09/18 03:46:49;;;;;;;19.00;6.00;;;;;;;;;;5053985;28;20110;-62
2022/09/18 03:49:15;;;;;;;15.63;6.15;;;;;;;;;;5052373;28;20033;-63
2022/09/18 03:51:41;;;;;;;19.42;6.65;;;;;;;;;;5052575;28;20281;-62
2022/09/18 03:54:07;;;;;;;21.70;6.82;;;;;;;;;;5053622;28;20025;-63
2022/09/18 03:56:35;;;;;;;18.05;6.43;;;;;;;;;;5053822;28;20175;-63
2022/09/18 03:59:01;;;;;;;18.08;6.03;;;;;;;;;;5053585;28;20409;-62
2022/09/18 04:01:27;;;;;;;21.33;6.82;;;;;;;;;;5053640;28;20035;-63
2022/09/18 04:03:53;;;;;;;20.65;6.97;;;;;;;;;;5053391;28;20029;-61
2022/09/18 04:06:19;;;;;;;14.90;6.40;;;;;;;;;;5052252;28;20074;-62
2022/09/18 04:08:45;;;;;;;18.75;6.43;;;;;;;;;;5053376;28;20021;-63
2022/09/18 04:11:11;;;;;;;19.85;6.70;;;;;;;;;;5053653;28;20061;-62
2022/09/18 04:13:37;;;;;;;20.40;6.65;;;;;;;;;;5053243;28;20021;-63
2022/09/18 04:16:03;;;;;;;19.00;7.40;;;;;;;;;;5051933;28;20079;-61
2022/09/18 04:18:29;;;;;;;18.08;7.10;;;;;;;;;;5050799;28;20078;-63
2022/09/18 04:20:56;;;;;;;18.80;7.03;;;;;;;;;;5052932;28;20108;-63
2022/09/18 04:23:22;;;;;;;18.75;8.05;;;;;;;;;;5051797;28;20374;-59
2022/09/18 04:25:48;;;;;;;19.55;7.68;;;;;;;;;;5053121;28;20186;-63
2022/09/18 04:28:14;;;;;;;21.48;9.00;;;;;;;;;;5052709;28;20477;-59
2022/09/18 04:30:40;;;;;;;18.73;7.38;;;;;;;;;;5053250;28;20021;-63
2022/09/18 04:33:06;;;;;;;21.73;8.35;;;;;;;;;;5052008;28;20084;-62
2022/09/18 04:35:33;;;;;;;21.20;8.63;;;;;;;;;;5053497;28;20028;-63
2022/09/18 04:37:59;;;;;;;20.08;7.43;;;;;;;;;;5052722;28;20028;-64
2022/09/18 04:40:25;;;;;;;22.45;8.45;;;;;;;;;;5052919;28;20025;-63
2022/09/18 04:42:51;;;;;;;20.88;8.50;;;;;;;;;;5052779;28;20104;-62
2022/09/18 04:45:17;;;;;;;20.58;9.40;;;;;;;;;;5052582;28;20021;-63
2022/09/18 04:47:44;;;;;;;22.13;7.97;;;;;;;;;;5052398;28;20028;-63
2022/09/18 04:50:10;;;;;;;21.08;9.07;;;;;;;;;;5052597;28;20048;-63
2022/09/18 04:52:36;;;;;;;25.92;9.43;;;;;;;;;;5052485;28;20079;-63
2022/09/18 04:55:02;;;;;;;19.45;8.07;;;;;;;;;;5051332;28;20017;-63
2022/09/18 04:57:28;;;;;;;20.70;8.38;;;;;;;;;;5052166;28;20025;-63
2022/09/18 04:59:54;;;;;;;23.38;8.50;;;;;;;;;;5052474;28;20120;-62
2022/09/18 05:02:20;;;;;;;18.50;8.82;;;;;;;;;;5052553;28;20023;-63
2022/09/18 05:04:46;;;;;;;23.52;9.00;;;;;;;;;;5050892;28;20096;-61
2022/09/18 05:07:12;;;;;;;19.75;8.80;;;;;;;;;;5052131;28;20032;-61
2022/09/18 05:09:38;;;;;;;22.00;8.88;;;;;;;;;;5051207;28;20111;-62
2022/09/18 05:12:04;;;;;;;26.17;8.68;;;;;;;;;;5051232;28;20480;-64
2022/09/18 05:14:30;;;;;;;19.15;8.05;;;;;;;;;;5052172;28;20477;-62
2022/09/18 05:16:56;;;;;;;19.55;8.30;;;;;;;;;;5052281;28;20031;-63
2022/09/18 05:19:22;;;;;;;20.67;8.80;;;;;;;;;;5050438;28;20078;-63
2022/09/18 05:21:49;;;;;;;21.40;8.98;;;;;;;;;;5051975;28;20053;-62
2022/09/18 05:24:16;;;;;;;17.45;8.73;;;;;;;;;;5051870;28;20025;-60
2022/09/18 05:26:42;;;;;;;21.27;8.52;;;;;;;;;;5050588;28;20032;-63
2022/09/18 05:29:08;;;;;;;21.88;9.10;;;;;;;;;;5051379;28;20319;-65
2022/09/18 05:31:34;;;;;;;18.90;8.35;;;;;;;;;;5051914;28;20086;-63
2022/09/18 05:34:00;;;;;;;23.90;8.15;;;;;;;;;;5052843;28;20048;-63
2022/09/18 05:36:26;;;;;;;16.98;8.55;;;;;;;;;;5051808;28;20128;-63
2022/09/18 05:38:52;;;;;;;21.10;8.68;;;;;;;;;;5051520;28;20055;-61
2022/09/18 05:41:18;;;;;;;21.88;8.82;;;;;;;;;;5051656;28;20025;-64
2022/09/18 05:43:44;;;;;;;16.58;7.88;;;;;;;;;;5051740;28;20091;-60
2022/09/18 05:46:10;;;;;;;19.35;8.88;;;;;;;;;;5051739;28;20033;-64
2022/09/18 05:48:36;;;;;;;20.77;8.30;;;;;;;;;;5051540;28;20036;-63
2022/09/18 05:51:02;;;;;;;19.25;8.48;;;;;;;;;;5051955;28;20036;-63
2022/09/18 05:53:29;;;;;;;19.60;9.35;;;;;;;;;;5050094;28;20033;-62
2022/09/18 05:55:55;;;;;;;22.38;10.30;;;;;;;;;;5051447;28;20021;-62
2022/09/18 05:58:21;;;;;;;21.83;14.10;;;;;;;;;;5051185;28;20025;-63
2022/09/18 06:00:47;;;;;;;20.38;15.10;;;;;;;;;;5051420;28;20049;-67
2022/09/18 06:03:17;;;;;;;20.70;14.63;;;;;;;;;;5051395;28;20035;-62
2022/09/18 06:05:50;;;;;;;22.23;14.80;;;;;;;;;;5051551;28;20025;-63
2022/09/18 06:08:16;;;;;;;21.42;14.30;;;;;;;;;;5051351;28;20028;-63
2022/09/18 06:10:42;;;;;;;19.83;14.63;;;;;;;;;;5051314;28;20108;-61
2022/09/18 06:13:08;;;;;;;17.65;14.07;;;;;;;;;;5051323;28;20124;-63
2022/09/18 06:15:35;;;;;;;17.55;13.85;;;;;;;;;;5051340;28;20036;-63
2022/09/18 06:18:01;;;;;;;19.25;13.35;;;;;;;;;;5051053;28;20020;-60
2022/09/18 06:20:27;;;;;;;20.52;13.70;;;;;;;;;;5051097;28;20028;-62
2022/09/18 06:22:53;;;;;;;18.55;13.45;;;;;;;;;;5051376;28;20027;-61
2022/09/18 06:25:20;;;;;;;19.08;13.20;;;;;;;;;;5051351;28;20029;-63
2022/09/18 06:27:53;;;;;;;20.48;13.02;;;;;;;;;;5051227;28;20052;-60
2022/09/18 06:30:19;;;;;;;19.15;12.65;;;;;;;;;;5051473;28;20021;-60
2022/09/18 06:32:45;;;;;;;20.60;13.90;;;;;;;;;;5051002;28;20052;-64
2022/09/18 06:35:11;;;;;;;20.27;13.00;;;;;;;;;;5051125;28;20029;-62
2022/09/18 06:37:37;;;;;;;19.35;13.40;;;;;;;;;;5051210;28;20108;-63
2022/09/18 06:40:04;;;;;;;19.33;13.32;;;;;;;;;;5052199;28;20028;-59
2022/09/18 06:42:30;;;;;;;17.77;12.98;;;;;;;;;;5055144;28;20029;-63
2022/09/18 06:44:56;;;;;;;18.50;12.13;;;;;;;;;;5054855;28;20035;-61
2022/09/18 06:47:22;;;;;;;21.15;13.20;;;;;;;;;;5054241;28;20033;-61
2022/09/18 06:49:48;;;;;;;19.05;12.35;;;;;;;;;;5054896;28;20029;-61
2022/09/18 06:52:14;;;;;;;18.52;12.48;;;;;;;;;;5054710;28;20404;-62
2022/09/18 06:54:40;;;;;;;19.67;12.60;;;;;;;;;;5054624;28;20092;-61
2022/09/18 06:57:06;;;;;;;20.73;12.65;;;;;;;;;;5054779;28;20109;-60
2022/09/18 06:59:32;;;;;;;22.23;12.43;;;;;;;;;;5054489;28;20400;-61
2022/09/18 07:01:58;;;;;;;20.48;11.77;;;;;;;;;;5054458;28;20112;-62
2022/09/18 07:04:24;;;;;;;18.23;12.88;;;;;;;;;;5054618;28;20029;-61
2022/09/18 07:06:50;;;;;;;21.38;13.10;;;;;;;;;;5054668;28;20032;-62
2022/09/18 07:09:17;;;;;;;17.23;12.23;;;;;;;;;;5053234;28;20556;-62
2022/09/18 07:11:43;;;;;;;19.92;12.05;;;;;;;;;;5054414;28;20032;-60
2022/09/18 07:14:09;;;;;;;19.65;11.80;;;;;;;;;;5054322;28;20025;-62
2022/09/18 07:16:35;;;;;;;22.77;11.82;;;;;;;;;;5054615;28;20079;-59
2022/09/18 07:19:01;;;;;;;20.02;12.13;;;;;;;;;;5054257;28;20021;-59
2022/09/18 07:21:28;;;;;;;21.27;11.85;;;;;;;;;;5054285;28;20021;-59
2022/09/18 07:23:54;;;;;;;19.83;11.10;;;;;;;;;;5054370;28;20029;-60
2022/09/18 07:26:20;;;;;;;17.00;10.77;;;;;;;;;;5054400;28;20055;-58
2022/09/18 07:28:46;;;;;;;17.25;11.10;;;;;;;;;;5054379;28;20037;-59
2022/09/18 07:31:12;;;;;;;19.25;10.90;;;;;;;;;;5053096;28;20520;-61
2022/09/18 07:33:39;;;;;;;19.85;10.73;;;;;;;;;;5054144;28;20036;-62
2022/09/18 07:36:05;;;;;;;18.98;11.70;;;;;;;;;;5054518;28;20025;-62
2022/09/18 07:38:33;;;;;;;21.27;12.20;;;;;;;;;;5053741;28;20481;-63
2022/09/18 07:41:02;;;;;;;20.48;12.45;;;;;;;;;;5052728;28;20031;-62
2022/09/18 07:43:29;;;;;;;19.95;12.25;;;;;;;;;;5053650;28;20029;-62
2022/09/18 07:45:55;;;;;;;20.60;11.73;;;;;;;;;;5053745;28;20027;-62
2022/09/18 07:48:22;;;;;;;20.50;11.75;;;;;;;;;;5053484;28;20049;-64
2022/09/18 07:50:48;;;;;;;17.55;10.90;;;;;;;;;;5053424;28;20021;-65
2022/09/18 07:53:16;;;;;;;18.67;11.10;;;;;;;;;;5053671;28;20082;-63
2022/09/18 07:55:46;;;;;;;19.20;10.80;;;;;;;;;;5056928;28;20033;-62
2022/09/18 07:58:12;;;;;;;18.05;10.25;;;;;;;;;;5054215;28;20635;-63
2022/09/18 08:00:38;;;;;;;20.13;10.00;;;;;;;;;;5053589;28;20408;-61
2022/09/18 08:03:13;;;;;;;17.73;9.77;;;;;;;;;;5053522;28;20040;-62
2022/09/18 08:05:40;;;;;;;17.17;10.50;;;;;;;;;;5053521;28;20021;-62
2022/09/18 08:08:08;;;;;;;18.80;10.38;;;;;;;;;;5053176;28;20021;-62
2022/09/18 08:10:34;;;;;;;17.52;10.30;;;;;;;;;;5053298;28;20029;-62
2022/09/18 08:13:01;;;;;;;17.05;9.75;;;;;;;;;;5052196;28;20612;-63
2022/09/18 08:15:28;;;;;;;17.92;9.93;;;;;;;;;;5052019;28;20104;-62
2022/09/18 08:17:54;;;;;;;22.40;10.05;;;;;;;;;;5052918;28;20163;-63
2022/09/18 08:20:20;;;;;;;16.40;10.45;;;;;;;;;;5053334;28;20024;-63
2022/09/18 08:22:46;;;;;;;18.40;10.00;;;;;;;;;;5053029;28;20025;-63
2022/09/18 08:25:13;;;;;;;17.00;9.93;;;;;;;;;;5053077;28;20418;-62
2022/09/18 08:27:40;;;;;;;19.10;11.68;;;;;;;;;;5053020;28;20029;-62
2022/09/18 08:30:07;;;;;;;21.52;12.80;;;;;;;;;;5053039;28;20104;-66
2022/09/18 08:32:33;;;;;;;16.42;12.00;;;;;;;;;;5052751;28;20107;-67
2022/09/18 08:35:00;;;;;;;18.95;11.45;;;;;;;;;;5052736;28;20080;-66
2022/09/18 08:37:27;;;;;;;20.40;13.90;;;;;;;;;;5052000;28;20021;-66
2022/09/18 08:39:53;;;;;;;21.02;13.70;;;;;;;;;;5052533;28;20021;-68
2022/09/18 08:42:28;;;;;;;21.20;15.50;;;;;;;;;;5052505;28;20048;-67
2022/09/18 08:45:07;;;;;;;22.75;20.33;;;;;;;;;;5052670;28;20025;-67
2022/09/18 08:47:39;;;;;;;25.08;22.80;;;;;;;;;;5052495;28;20469;-68
2022/09/18 08:50:14;;;;;;;30.88;28.33;;;;;;;;;;5052858;28;20021;-68
2022/09/18 08:52:43;;;;;;;32.42;29.85;;;;;;;;;;5052740;28;20052;-67
2022/09/18 08:55:09;;;;;;;;;;;;;;;;;;5053278;28;20025;-67
2022/09/18 08:57:40;;;;;;;36.20;33.20;;;;;;;;;;5052465;28;20366;-68
2022/09/18 09:00:23;;;;;;;34.97;32.10;;;;;;;;;;5051508;28;20017;-69
2022/09/18 09:02:49;;;;;;;34.03;31.23;;;;;;;;;;5051711;28;20040;-69
2022/09/18 09:05:17;;;;;;;33.67;30.23;;;;;;;;;;5052097;28;20043;-69
2022/09/18 09:07:49;;;;;;;32.30;29.30;;;;;;;;;;5051092;28;20451;-68
2022/09/18 09:10:15;;;;;;;35.45;32.00;;;;;;;;;;5052513;28;20025;-68
2022/09/18 09:12:47;;;;;;;32.83;29.70;;;;;;;;;;5051107;28;20028;-68
2022/09/18 09:15:24;;;;;;;30.45;28.25;;;;;;;;;;5052291;28;20481;-67
2022/09/18 09:17:50;;;;;;;35.17;32.78;;;;;;;;;;5051699;28;20393;-55
2022/09/18 09:20:17;;;;;;;34.50;32.10;;;;;;;;;;5051962;28;20024;-52
2022/09/18 09:22:43;;;;;;;33.05;30.75;;;;;;;;;;5052062;28;20370;-49
2022/09/18 09:25:20;;;;;;;31.73;29.42;;;;;;;;;;5051847;28;20362;-48
2022/09/18 09:27:56;;;;;;;30.42;28.23;;;;;;;;;;5051790;28;20116;-52
2022/09/18 09:30:22;;;;;;;37.70;35.20;;;;;;;;;;5050553;28;20025;-56
2022/09/18 09:32:51;;;;;;;37.95;35.45;;;;;;;;;;5051961;28;20033;-52
2022/09/18 09:35:20;;;;;;;34.33;31.92;;;;;;;;;;5051956;28;20440;-56
2022/09/18 09:37:47;;;;;;;32.60;30.30;;;;;;;;;;5051640;28;20539;-53
2022/09/18 09:40:16;;;;;;;33.78;31.45;;;;;;;;;;5051905;28;20045;-54
2022/09/18 09:42:58;;;;;;;33.92;31.52;;;;;;;;;;5051974;28;20100;-52
2022/09/18 09:45:28;;;;;;;31.95;29.65;;;;;;;;;;5051778;28;20213;-55
2022/09/18 09:47:59;;;;;;;31.42;29.23;;;;;;;;;;5051862;28;20040;-54
2022/09/18 09:50:44;;;;;;;30.77;28.58;;;;;;;;;;5052003;28;20025;-54
2022/09/18 09:53:12;;;;;;;30.77;28.58;;;;;;;;;;5052106;28;20029;-53
2022/09/18 09:55:40;;;;;;;28.95;26.85;;;;;;;;;;5052004;28;20025;-53
2022/09/18 09:58:09;;;;;;;28.15;26.05;;;;;;;;;;5051771;28;20025;-51
2022/09/18 10:01:02;;;;;;;27.40;25.30;;;;;;;;;;5051566;28;20100;-54
2022/09/18 10:03:31;;;;;;;27.25;25.15;;;;;;;;;;5046410;28;20033;-55
2022/09/18 10:06:16;;;;;;;27.17;25.15;;;;;;;;;;5051849;28;20079;-57
2022/09/18 10:08:58;;;;;;;26.33;24.33;;;;;;;;;;5052151;28;20024;-55
2022/09/18 10:11:24;;;;;;;24.58;22.58;;;;;;;;;;5052160;28;20096;-49
2022/09/18 10:13:53;;;;;;;24.30;22.40;;;;;;;;;;5051966;28;20021;-53
2022/09/18 10:16:39;;;;;;;23.23;21.33;;;;;;;;;;5055811;28;20025;-52
2022/09/18 10:19:05;;;;;;;22.50;20.60;;;;;;;;;;5054731;28;20036;-56
2022/09/18 10:21:33;;;;;;;24.95;22.95;;;;;;;;;;5053175;28;20033;-57
2022/09/18 10:24:18;;;;;;;24.15;22.25;;;;;;;;;;5054713;28;20022;-61
2022/09/18 10:26:44;;;;;;;23.10;21.20;;;;;;;;;;5053956;28;20065;-49
2022/09/18 10:29:10;;;;;;;21.85;19.95;;;;;;;;;;5054861;28;20052;-50
2022/09/18 10:31:54;;;;;;;20.60;18.80;;;;;;;;;;5054979;28;20086;-54
2022/09/18 10:34:39;;;;;;;19.38;17.58;;;;;;;;;;5054293;28;20025;-55
2022/09/18 10:37:06;;;;;;;19.67;17.88;;;;;;;;;;5054576;28;20032;-52
2022/09/18 10:39:33;;;;;;;19.10;17.30;;;;;;;;;;5054232;28;20051;-54
2022/09/18 10:41:59;;;;;;;18.85;17.08;;;;;;;;;;5053403;28;20032;-53
2022/09/18 10:44:42;;;;;;;18.23;16.52;;;;;;;;;;5054573;28;20036;-53
2022/09/18 10:47:11;;;;;;;16.48;14.77;;;;;;;;;;5054594;28;20029;-56
2022/09/18 10:49:39;;;;;;;15.27;13.68;;;;;;;;;;5054870;28;20078;-54
2022/09/18 10:52:17;;;;;;;15.35;13.70;;;;;;;;;;5054195;28;20032;-52
2022/09/18 10:55:03;;;;;;;15.00;13.02;;;;;;;;;;5054501;28;20057;-55
2022/09/18 10:57:30;;;;;;;14.98;13.02;;;;;;;;;;5054085;28;20040;-56
2022/09/18 10:59:57;;;;;;;15.10;13.20;;;;;;;;;;5054711;28;20412;-55
2022/09/18 11:02:25;;;;;;;14.85;12.73;;;;;;;;;;5054581;28;20025;-53
2022/09/18 11:04:52;;;;;;;16.08;13.35;;;;;;;;;;5054425;28;20029;-56
2022/09/18 11:07:18;;;;;;;14.90;12.95;;;;;;;;;;5054420;28;20537;-54
2022/09/18 11:09:45;;;;;;;14.80;12.60;;;;;;;;;;5054902;28;20032;-54
2022/09/18 11:12:29;;;;;;;14.93;13.00;;;;;;;;;;5055164;28;20029;-55
2022/09/18 11:14:59;;;;;;;15.00;13.23;;;;;;;;;;5055307;28;20493;-55
2022/09/18 11:17:34;;;;;;;14.90;13.23;;;;;;;;;;5054434;28;20033;-56
2022/09/18 11:20:01;;;;;;;15.13;13.52;;;;;;;;;;5054229;28;20021;-54
2022/09/18 11:22:40;;;;;;;15.57;13.90;;;;;;;;;;5054411;28;20032;-56
2022/09/18 11:25:15;;;;;;;15.50;13.82;;;;;;;;;;5054271;28;20435;-59
2022/09/18 11:27:46;;;;;;;16.10;14.40;;;;;;;;;;5054043;28;20017;-53
2022/09/18 11:30:13;;;;;;;15.10;13.48;;;;;;;;;;5054451;28;20074;-55
2022/09/18 11:32:39;;;;;;;15.43;13.82;;;;;;;;;;5054007;28;20043;-55
2022/09/18 11:35:12;;;;;;;15.68;14.07;;;;;;;;;;5067256;22;20088;-54
2022/09/18 11:37:50;;;;;;;15.98;14.27;;;;;;;;;;5033932;28;20033;-59
2022/09/18 11:40:22;;;;;;;17.70;16.00;;;;;;;;;;5033021;28;20163;-56
2022/09/18 11:42:49;;;;;;;17.15;15.45;;;;;;;;;;5034338;28;20091;-60
2022/09/18 11:45:15;;;;;;;18.83;17.02;;;;;;;;;;5034243;28;20029;-59
2022/09/18 11:47:54;;;;;;;22.60;20.70;;;;;;;;;;5034137;28;20033;-61
2022/09/18 11:50:21;;;;;;;25.20;23.20;;;;;;;;;;5034325;28;20032;-57
2022/09/18 11:52:51;;;;;;;24.65;22.65;;;;;;;;;;5034224;28;20321;-58
2022/09/18 11:55:17;;;;;;;23.60;21.70;;;;;;;;;;5034026;28;20014;-58
2022/09/18 11:57:55;;;;;;;23.38;21.48;;;;;;;;;;5034036;28;20044;-58
2022/09/18 12:00:23;;;;;;;25.95;23.95;;;;;;;;;;5033820;28;20056;-55
2022/09/18 12:03:04;;;;;;;26.52;24.52;;;;;;;;;;5033764;28;20038;-55
2022/09/18 12:05:39;;;;;;;26.20;24.17;;;;;;;;;;5033895;28;20036;-54
2022/09/18 12:08:05;;;;;;;25.75;23.75;;;;;;;;;;5033513;28;20109;-50
2022/09/18 12:10:43;;;;;;;27.67;25.58;;;;;;;;;;5033642;28;20108;-55
2022/09/18 12:13:12;;;;;;;27.75;25.65;;;;;;;;;;5033820;28;20109;-55
2022/09/18 12:15:42;;;;;;;52.20;26.15;;;;;;;;;;5051993;28;20106;-54
2022/09/18 12:18:20;;;;;;;28.67;26.58;;;;;;;;;;5053069;28;20051;-56
2022/09/18 12:20:49;;;;;;;27.83;25.73;;;;;;;;;;5045778;28;20059;-51
2022/09/18 12:23:17;;;;;;;26.40;24.40;;;;;;;;;;5032601;28;20501;-55
2022/09/18 12:26:01;;;;;;;24.57;22.60;;;;;;;;;;5033182;28;20116;-55
2022/09/18 12:28:37;;;;;;;24.10;22.10;;;;;;;;;;4680295;28;10000744;-53
2022/09/18 12:31:13;;;;;;;22.77;20.80;;;;;;;;;;5029599;28;20027;-55
2022/09/18 12:33:58;;;;;;;25.10;23.10;;;;;;;;;;5030116;28;20017;-55
2022/09/18 12:36:43;;;;;;;24.20;22.20;;;;;;;;;;5030035;28;20041;-59
2022/09/18 12:39:24;;;;;;;24.10;22.20;;;;;;;;;;5029856;28;20018;-54
2022/09/18 12:42:09;;;;;;;25.52;23.52;;;;;;;;;;5030269;28;20033;-55
2022/09/18 12:44:49;;;;;;;24.65;22.65;;;;;;;;;;5028919;28;20411;-54
2022/09/18 12:47:27;;;;;;;25.20;23.20;;;;;;;;;;5028609;28;20091;-57
2022/09/18 12:50:12;;;;;;;24.20;22.30;;;;;;;;;;5029721;28;20493;-55
2022/09/18 12:52:57;;;;;;;24.63;22.63;;;;;;;;;;5009750;28;20034;-55
2022/09/18 12:55:36;;;;;;;24.67;22.67;;;;;;;;;;5010107;28;20026;-56
2022/09/18 12:58:05;;;;;;;24.30;22.40;;;;;;;;;;5009583;28;20022;-58
2022/09/18 13:00:30;;;;;;;23.30;21.40;;;;;;;;;;5010097;28;20425;-54
2022/09/18 13:03:32;;;;;;;22.90;21.00;;;;;;;;;;5029575;28;20083;-54
2022/09/18 13:06:01;;;;;;;22.40;20.50;;;;;;;;;;4988189;28;20454;-55
2022/09/18 13:08:33;;;;;;;22.67;20.77;;;;;;;;;;5023627;28;20482;-55
2022/09/18 13:11:12;;;;;;;22.80;20.90;;;;;;;;;;5025419;28;20033;-55
2022/09/18 13:13:38;;;;;;;23.40;21.50;;;;;;;;;;5031695;28;20421;-55
2022/09/18 13:16:07;;;;;;;24.10;22.10;;;;;;;;;;5030221;28;20040;-61
2022/09/18 13:18:33;;;;;;;22.95;21.05;;;;;;;;;;5030376;28;20026;-56
2022/09/18 13:21:00;;;;;;;24.17;22.20;;;;;;;;;;5031477;28;20021;-58
2022/09/18 13:23:28;;;;;;;22.70;20.80;;;;;;;;;;5031618;28;20101;-56
2022/09/18 13:25:55;;;;;;;21.88;19.98;;;;;;;;;;5031692;28;20030;-60
2022/09/18 13:28:22;;;;;;;20.42;18.63;;;;;;;;;;5030403;28;20095;-52
2022/09/18 13:31:08;;;;;;;19.67;17.87;;;;;;;;;;4680957;28;10000378;-59
2022/09/18 13:33:34;;;;;;;17.98;16.27;;;;;;;;;;5018372;28;20038;-57
2022/09/18 13:36:00;;;;;;;18.67;16.77;;;;;;;;;;5028797;28;20033;-58
2022/09/18 13:38:28;;;;;;;15.15;13.55;;;;;;;;;;5028882;28;20028;-57
2022/09/18 13:41:02;;;;;;;14.98;13.15;;;;;;;;;;5027641;28;20025;-57
2022/09/18 13:43:28;;;;;;;15.10;13.45;;;;;;;;;;5028891;28;20025;-58
2022/09/18 13:45:55;;;;;;;14.73;12.50;;;;;;;;;;5028682;28;20124;-56
2022/09/18 13:48:21;;;;;;;15.00;12.95;;;;;;;;;;5028251;28;20035;-57
2022/09/18 13:50:53;;;;;;;14.90;12.77;;;;;;;;;;5028826;28;20076;-58
2022/09/18 13:53:31;;;;;;;14.60;12.00;;;;;;;;;;5028880;28;20029;-56
2022/09/18 13:55:57;;;;;;;15.55;12.73;;;;;;;;;;5028688;28;20520;-59
2022/09/18 13:58:32;;;;;;;14.20;10.80;;;;;;;;;;5028251;28;20120;-59
2022/09/18 14:00:59;;;;;;;14.27;10.93;;;;;;;;;;5028776;28;20052;-59
2022/09/18 14:03:25;;;;;;;14.13;10.60;;;;;;;;;;5028573;28;20064;-57
2022/09/18 14:05:52;;;;;;;13.77;9.35;;;;;;;;;;5028277;28;20076;-57
2022/09/18 14:08:21;;;;;;;13.55;8.68;;;;;;;;;;5028387;28;20092;-54
2022/09/18 14:10:50;;;;;;;13.30;8.00;;;;;;;;;;5028389;28;20104;-56
2022/09/18 14:13:16;;;;;;;12.55;7.75;;;;;;;;;;5028316;28;20029;-56
2022/09/18 14:16:00;;;;;;;11.50;6.78;;;;;;;;;;5028145;28;20037;-62
2022/09/18 14:18:41;;;;;;;9.88;5.88;;;;;;;;;;5026748;28;20450;-62
2022/09/18 14:21:16;;;;;;;9.75;5.75;;;;;;;;;;5026847;28;20049;-59
2022/09/18 14:23:45;;;;;;;9.40;5.55;;;;;;;;;;5028733;28;20593;-61
2022/09/18 14:26:30;;;;;;;9.70;6.30;;;;;;;;;;5028276;28;20030;-61
2022/09/18 14:29:11;;;;;;;8.20;4.85;;;;;;;;;;5028353;28;20030;-61
2022/09/18 14:31:37;;;;;;;8.05;4.80;;;;;;;;;;5028231;28;20029;-60
2022/09/18 14:34:24;;;;;;;8.18;4.85;;;;;;;;;;5028137;28;20097;-61
2022/09/18 14:36:55;;;;;;;8.60;5.10;;;;;;;;;;5028380;28;20113;-60